Glencoe, Missouri
Current Conditions -  °F | °C
As of 6:54 AM on Monday 22 Dec 2014 (Local Time) from KSUS Reporting Station
Light Rain Light Rain  
Wind Chill: 36°   Ceiling: 2900
Heat Index: 39°   Visibility: 7mi
Dew Point: 36°   Wind: 5mph
Humidity: 89%   Direction: 130°SE
Pressure: 29.77"   Gusts: NA
Location:  38.54°N, 90.62°W
Report Text: KSUS 221254Z 13004KT 7SM -RA BKN029 OVC050 04/02 A2977 RMK AO2 SLP084 P0004 T00390022
Loading
Personal Weather Stations






























Interactive Weather Map New forecast layout! Learn more

10-Day Weather Forecast

Advertisements
Track Severe Weather on mobile